This is the latest recevied weather packets stored in our database for station/object JQ3CCU-10. If no packets are shown the sender has not sent any weather packets the latest 10 day(s).
| Time | Temp. | Humidity | Pressure | Rain* | Wind** | Luminosity | Snow |
|---|---|---|---|---|---|---|---|
| 1777872255 | 26.67° C | 52% | - | - | 0 m/s | - | - |
| 1777870455 | 26.67° C | 52% | - | - | 0 m/s | - | - |
| 1777868655 | 26.67° C | 54% | - | - | 0 m/s | - | - |
| 1777866855 | 26.67° C | 54% | - | - | 0 m/s | - | - |
| 1777865055 | 26.67° C | 53% | - | - | 0 m/s | - | - |
| 1777863255 | 26.67° C | 53% | - | - | 0 m/s | - | - |
| 1777861455 | 27.22° C | 53% | - | - | 0 m/s | - | - |
| 1777859655 | 27.22° C | 53% | - | - | 0 m/s | - | - |
| 1777857855 | 28.33° C | 53% | - | - | 0 m/s | - | - |
| 1777856055 | 28.33° C | 53% | - | - | 0 m/s | - | - |
| 1777854255 | 33.33° C | 40% | - | - | 0 m/s | - | - |
| 1777852455 | 33.33° C | 40% | - | - | 0 m/s | - | - |
| 1777850655 | 30.56° C | 44% | - | - | 0 m/s | - | - |
| 1777848855 | 30.56° C | 44% | - | - | 0 m/s | - | - |
| 1777847055 | 21.67° C | 73% | - | - | 0 m/s | - | - |
| 1777845255 | 21.67° C | 73% | - | - | 0 m/s | - | - |
| 1777843455 | 21.11° C | 74% | - | - | 0 m/s | - | - |
| 1777841655 | 21.11° C | 74% | - | - | 0 m/s | - | - |
| 1777839855 | 21.67° C | 81% | - | - | 0 m/s | - | - |
| 1777838055 | 21.67° C | 81% | - | - | 0 m/s | - | - |
| 1777836255 | 21.11° C | 76% | - | - | 0 m/s | - | - |
| 1777834455 | 21.11° C | 76% | - | - | 0 m/s | - | - |
| 1777832655 | 21.67° C | 75% | - | - | 0 m/s | - | - |
| 1777830855 | 21.67° C | 75% | - | - | 0 m/s | - | - |
| 1777829055 | 21.67° C | 80% | - | - | 0 m/s | - | - |
* Rain since midnight (hover to see other rain measurements)
** Current wind speed in m/s (hover to see current wind gust speed)